sensor_id;sensor_type;location;lat;lon;timestamp;P1;durP1;ratioP1;P2;durP2;ratioP2
46266;SDS011;31998;48.798;15.066;2023-03-04T00:01:11;20.87;;;12.60;;
46266;SDS011;31998;48.798;15.066;2023-03-04T00:03:37;21.50;;;13.27;;
46266;SDS011;31998;48.798;15.066;2023-03-04T00:06:02;19.97;;;12.37;;
46266;SDS011;31998;48.798;15.066;2023-03-04T00:08:27;25.87;;;12.10;;
46266;SDS011;31998;48.798;15.066;2023-03-04T00:10:53;23.53;;;11.70;;
46266;SDS011;31998;48.798;15.066;2023-03-04T00:13:18;21.40;;;13.20;;
46266;SDS011;31998;48.798;15.066;2023-03-04T00:15:46;19.23;;;12.80;;
46266;SDS011;31998;48.798;15.066;2023-03-04T00:18:12;17.23;;;10.50;;
46266;SDS011;31998;48.798;15.066;2023-03-04T00:20:37;18.67;;;13.10;;
46266;SDS011;31998;48.798;15.066;2023-03-04T00:23:02;23.40;;;11.47;;
46266;SDS011;31998;48.798;15.066;2023-03-04T00:25:28;20.80;;;12.10;;
46266;SDS011;31998;48.798;15.066;2023-03-04T00:27:53;17.33;;;11.57;;
46266;SDS011;31998;48.798;15.066;2023-03-04T00:30:18;22.40;;;12.03;;
46266;SDS011;31998;48.798;15.066;2023-03-04T00:32:43;21.33;;;12.87;;
46266;SDS011;31998;48.798;15.066;2023-03-04T00:35:09;18.40;;;12.00;;
46266;SDS011;31998;48.798;15.066;2023-03-04T00:37:34;18.83;;;11.70;;
46266;SDS011;31998;48.798;15.066;2023-03-04T00:39:59;17.97;;;11.00;;
46266;SDS011;31998;48.798;15.066;2023-03-04T00:42:24;16.40;;;11.10;;
46266;SDS011;31998;48.798;15.066;2023-03-04T00:44:50;24.93;;;11.67;;
46266;SDS011;31998;48.798;15.066;2023-03-04T00:47:16;20.50;;;12.77;;
46266;SDS011;31998;48.798;15.066;2023-03-04T00:49:41;19.00;;;11.50;;
46266;SDS011;31998;48.798;15.066;2023-03-04T00:52:06;19.80;;;10.90;;
46266;SDS011;31998;48.798;15.066;2023-03-04T00:54:32;22.20;;;12.53;;
46266;SDS011;31998;48.798;15.066;2023-03-04T00:56:57;20.00;;;10.80;;
46266;SDS011;31998;48.798;15.066;2023-03-04T00:59:22;19.13;;;11.13;;
46266;SDS011;31998;48.798;15.066;2023-03-04T01:01:47;19.80;;;10.87;;
46266;SDS011;31998;48.798;15.066;2023-03-04T01:04:13;24.07;;;12.53;;
46266;SDS011;31998;48.798;15.066;2023-03-04T01:06:38;18.33;;;11.50;;
46266;SDS011;31998;48.798;15.066;2023-03-04T01:09:03;19.60;;;12.20;;
46266;SDS011;31998;48.798;15.066;2023-03-04T01:11:28;16.57;;;11.73;;
46266;SDS011;31998;48.798;15.066;2023-03-04T01:13:53;20.07;;;11.70;;
46266;SDS011;31998;48.798;15.066;2023-03-04T01:16:19;21.13;;;12.33;;
46266;SDS011;31998;48.798;15.066;2023-03-04T01:18:44;24.83;;;12.10;;
46266;SDS011;31998;48.798;15.066;2023-03-04T01:21:11;19.37;;;11.00;;
46266;SDS011;31998;48.798;15.066;2023-03-04T01:23:36;23.27;;;10.27;;
46266;SDS011;31998;48.798;15.066;2023-03-04T01:26:01;20.17;;;12.00;;
46266;SDS011;31998;48.798;15.066;2023-03-04T01:28:27;23.10;;;12.30;;
46266;SDS011;31998;48.798;15.066;2023-03-04T01:30:52;20.87;;;12.00;;
46266;SDS011;31998;48.798;15.066;2023-03-04T01:33:17;21.03;;;11.27;;
46266;SDS011;31998;48.798;15.066;2023-03-04T01:35:42;24.67;;;13.77;;
46266;SDS011;31998;48.798;15.066;2023-03-04T01:38:07;19.57;;;11.47;;
46266;SDS011;31998;48.798;15.066;2023-03-04T01:40:33;14.93;;;10.07;;
46266;SDS011;31998;48.798;15.066;2023-03-04T01:42:58;22.03;;;11.83;;
46266;SDS011;31998;48.798;15.066;2023-03-04T01:45:23;22.53;;;11.20;;
46266;SDS011;31998;48.798;15.066;2023-03-04T01:47:49;18.97;;;10.90;;
46266;SDS011;31998;48.798;15.066;2023-03-04T01:50:36;17.73;;;11.63;;
46266;SDS011;31998;48.798;15.066;2023-03-04T01:53:01;15.87;;;10.80;;
46266;SDS011;31998;48.798;15.066;2023-03-04T01:55:27;14.80;;;9.37;;
46266;SDS011;31998;48.798;15.066;2023-03-04T01:57:53;19.00;;;10.33;;
46266;SDS011;31998;48.798;15.066;2023-03-04T02:00:24;17.10;;;10.33;;
46266;SDS011;31998;48.798;15.066;2023-03-04T02:02:57;19.90;;;11.50;;
46266;SDS011;31998;48.798;15.066;2023-03-04T02:05:23;16.73;;;10.33;;
46266;SDS011;31998;48.798;15.066;2023-03-04T02:07:49;21.83;;;10.90;;
46266;SDS011;31998;48.798;15.066;2023-03-04T02:10:15;16.53;;;10.10;;
46266;SDS011;31998;48.798;15.066;2023-03-04T02:12:40;16.27;;;10.07;;
46266;SDS011;31998;48.798;15.066;2023-03-04T02:15:06;16.20;;;9.80;;
46266;SDS011;31998;48.798;15.066;2023-03-04T02:17:32;13.53;;;9.50;;
46266;SDS011;31998;48.798;15.066;2023-03-04T02:20:01;14.80;;;10.13;;
46266;SDS011;31998;48.798;15.066;2023-03-04T02:22:29;16.87;;;10.67;;
46266;SDS011;31998;48.798;15.066;2023-03-04T02:24:59;17.80;;;10.03;;
46266;SDS011;31998;48.798;15.066;2023-03-04T02:27:26;19.37;;;10.57;;
46266;SDS011;31998;48.798;15.066;2023-03-04T02:29:51;18.73;;;10.07;;
46266;SDS011;31998;48.798;15.066;2023-03-04T02:32:16;19.10;;;10.33;;
46266;SDS011;31998;48.798;15.066;2023-03-04T02:34:46;19.23;;;10.03;;
46266;SDS011;31998;48.798;15.066;2023-03-04T02:37:12;15.37;;;9.73;;
46266;SDS011;31998;48.798;15.066;2023-03-04T02:39:39;14.17;;;9.93;;
46266;SDS011;31998;48.798;15.066;2023-03-04T02:42:04;16.27;;;8.63;;
46266;SDS011;31998;48.798;15.066;2023-03-04T02:44:32;13.57;;;8.90;;
46266;SDS011;31998;48.798;15.066;2023-03-04T02:46:59;15.07;;;8.70;;
46266;SDS011;31998;48.798;15.066;2023-03-04T02:49:25;13.60;;;8.77;;
46266;SDS011;31998;48.798;15.066;2023-03-04T02:52:01;18.47;;;10.13;;
46266;SDS011;31998;48.798;15.066;2023-03-04T02:54:27;23.13;;;10.43;;
46266;SDS011;31998;48.798;15.066;2023-03-04T02:56:54;16.63;;;9.87;;
46266;SDS011;31998;48.798;15.066;2023-03-04T02:59:21;11.80;;;8.77;;
46266;SDS011;31998;48.798;15.066;2023-03-04T03:01:46;18.77;;;9.00;;
46266;SDS011;31998;48.798;15.066;2023-03-04T03:04:12;13.20;;;9.03;;
46266;SDS011;31998;48.798;15.066;2023-03-04T03:06:37;15.10;;;8.47;;
46266;SDS011;31998;48.798;15.066;2023-03-04T03:09:03;14.93;;;9.73;;
46266;SDS011;31998;48.798;15.066;2023-03-04T03:11:28;18.03;;;8.90;;
46266;SDS011;31998;48.798;15.066;2023-03-04T03:13:54;13.03;;;9.13;;
46266;SDS011;31998;48.798;15.066;2023-03-04T03:16:19;14.30;;;8.67;;
46266;SDS011;31998;48.798;15.066;2023-03-04T03:18:44;12.57;;;8.13;;
46266;SDS011;31998;48.798;15.066;2023-03-04T03:21:10;16.73;;;9.00;;
46266;SDS011;31998;48.798;15.066;2023-03-04T03:23:36;12.73;;;8.97;;
46266;SDS011;31998;48.798;15.066;2023-03-04T03:26:01;10.97;;;8.73;;
46266;SDS011;31998;48.798;15.066;2023-03-04T03:28:27;10.80;;;8.70;;
46266;SDS011;31998;48.798;15.066;2023-03-04T03:30:53;13.80;;;8.20;;
46266;SDS011;31998;48.798;15.066;2023-03-04T03:33:18;12.47;;;8.30;;
46266;SDS011;31998;48.798;15.066;2023-03-04T03:35:44;12.93;;;7.80;;
46266;SDS011;31998;48.798;15.066;2023-03-04T03:38:09;11.03;;;8.00;;
46266;SDS011;31998;48.798;15.066;2023-03-04T03:40:34;18.40;;;9.83;;
46266;SDS011;31998;48.798;15.066;2023-03-04T03:43:00;16.33;;;7.70;;
46266;SDS011;31998;48.798;15.066;2023-03-04T03:45:25;13.00;;;7.80;;
46266;SDS011;31998;48.798;15.066;2023-03-04T03:47:51;11.87;;;7.60;;
46266;SDS011;31998;48.798;15.066;2023-03-04T03:50:16;13.23;;;8.67;;
46266;SDS011;31998;48.798;15.066;2023-03-04T03:52:41;13.73;;;8.63;;
46266;SDS011;31998;48.798;15.066;2023-03-04T03:55:07;12.90;;;8.50;;
46266;SDS011;31998;48.798;15.066;2023-03-04T03:57:33;15.03;;;8.80;;
46266;SDS011;31998;48.798;15.066;2023-03-04T03:59:58;10.27;;;7.37;;
46266;SDS011;31998;48.798;15.066;2023-03-04T04:02:23;13.70;;;8.60;;
46266;SDS011;31998;48.798;15.066;2023-03-04T04:04:48;17.40;;;9.10;;
46266;SDS011;31998;48.798;15.066;2023-03-04T04:07:14;13.97;;;8.90;;
46266;SDS011;31998;48.798;15.066;2023-03-04T04:09:39;12.60;;;7.27;;
46266;SDS011;31998;48.798;15.066;2023-03-04T04:12:05;16.17;;;8.40;;
46266;SDS011;31998;48.798;15.066;2023-03-04T04:14:30;12.93;;;7.43;;
46266;SDS011;31998;48.798;15.066;2023-03-04T04:16:55;11.03;;;8.23;;
46266;SDS011;31998;48.798;15.066;2023-03-04T04:19:21;17.33;;;9.10;;
46266;SDS011;31998;48.798;15.066;2023-03-04T04:21:46;13.47;;;8.70;;
46266;SDS011;31998;48.798;15.066;2023-03-04T04:24:11;14.40;;;9.40;;
46266;SDS011;31998;48.798;15.066;2023-03-04T04:26:37;15.10;;;8.20;;
46266;SDS011;31998;48.798;15.066;2023-03-04T04:29:02;16.57;;;9.70;;
46266;SDS011;31998;48.798;15.066;2023-03-04T04:31:27;19.53;;;8.87;;
46266;SDS011;31998;48.798;15.066;2023-03-04T04:33:52;14.67;;;7.97;;
46266;SDS011;31998;48.798;15.066;2023-03-04T04:36:18;16.93;;;8.50;;
46266;SDS011;31998;48.798;15.066;2023-03-04T04:38:43;13.23;;;8.47;;
46266;SDS011;31998;48.798;15.066;2023-03-04T04:41:14;14.67;;;8.20;;
46266;SDS011;31998;48.798;15.066;2023-03-04T04:43:40;13.33;;;9.13;;
46266;SDS011;31998;48.798;15.066;2023-03-04T04:46:07;10.50;;;7.83;;
46266;SDS011;31998;48.798;15.066;2023-03-04T04:48:32;16.07;;;8.80;;
46266;SDS011;31998;48.798;15.066;2023-03-04T04:50:57;13.00;;;8.10;;
46266;SDS011;31998;48.798;15.066;2023-03-04T04:53:23;11.10;;;7.43;;
46266;SDS011;31998;48.798;15.066;2023-03-04T04:55:48;11.97;;;7.80;;
46266;SDS011;31998;48.798;15.066;2023-03-04T04:58:13;10.47;;;7.07;;
46266;SDS011;31998;48.798;15.066;2023-03-04T05:00:38;13.07;;;8.00;;
46266;SDS011;31998;48.798;15.066;2023-03-04T05:03:03;11.80;;;8.23;;
46266;SDS011;31998;48.798;15.066;2023-03-04T05:05:29;11.37;;;8.07;;
46266;SDS011;31998;48.798;15.066;2023-03-04T05:07:54;11.40;;;7.70;;
46266;SDS011;31998;48.798;15.066;2023-03-04T05:10:19;12.13;;;7.37;;
46266;SDS011;31998;48.798;15.066;2023-03-04T05:12:44;10.53;;;7.33;;
46266;SDS011;31998;48.798;15.066;2023-03-04T05:15:10;12.00;;;7.57;;
46266;SDS011;31998;48.798;15.066;2023-03-04T05:17:35;15.67;;;8.87;;
46266;SDS011;31998;48.798;15.066;2023-03-04T05:20:00;14.30;;;7.73;;
46266;SDS011;31998;48.798;15.066;2023-03-04T05:22:26;12.83;;;8.20;;
46266;SDS011;31998;48.798;15.066;2023-03-04T05:24:52;10.97;;;6.53;;
46266;SDS011;31998;48.798;15.066;2023-03-04T05:27:17;13.40;;;7.80;;
46266;SDS011;31998;48.798;15.066;2023-03-04T05:29:42;11.53;;;7.13;;
46266;SDS011;31998;48.798;15.066;2023-03-04T05:32:08;9.20;;;7.00;;
46266;SDS011;31998;48.798;15.066;2023-03-04T05:34:34;11.37;;;6.47;;
46266;SDS011;31998;48.798;15.066;2023-03-04T05:36:59;13.43;;;7.77;;
46266;SDS011;31998;48.798;15.066;2023-03-04T05:39:24;15.77;;;9.00;;
46266;SDS011;31998;48.798;15.066;2023-03-04T05:41:49;11.63;;;6.37;;
46266;SDS011;31998;48.798;15.066;2023-03-04T05:44:15;12.43;;;7.57;;
46266;SDS011;31998;48.798;15.066;2023-03-04T05:46:40;8.07;;;5.80;;
46266;SDS011;31998;48.798;15.066;2023-03-04T05:49:05;8.93;;;6.37;;
46266;SDS011;31998;48.798;15.066;2023-03-04T05:51:30;9.07;;;6.70;;
46266;SDS011;31998;48.798;15.066;2023-03-04T05:53:56;10.20;;;6.80;;
46266;SDS011;31998;48.798;15.066;2023-03-04T05:56:21;13.33;;;7.33;;
46266;SDS011;31998;48.798;15.066;2023-03-04T05:58:46;16.63;;;8.00;;
46266;SDS011;31998;48.798;15.066;2023-03-04T06:01:11;15.13;;;8.17;;
46266;SDS011;31998;48.798;15.066;2023-03-04T06:03:37;11.40;;;6.60;;
46266;SDS011;31998;48.798;15.066;2023-03-04T06:06:02;18.73;;;8.70;;
46266;SDS011;31998;48.798;15.066;2023-03-04T06:08:27;13.40;;;7.57;;
46266;SDS011;31998;48.798;15.066;2023-03-04T06:10:54;16.50;;;9.03;;
46266;SDS011;31998;48.798;15.066;2023-03-04T06:13:19;12.37;;;7.53;;
46266;SDS011;31998;48.798;15.066;2023-03-04T06:15:45;14.70;;;8.80;;
46266;SDS011;31998;48.798;15.066;2023-03-04T06:18:10;12.63;;;7.90;;
46266;SDS011;31998;48.798;15.066;2023-03-04T06:20:35;13.30;;;8.07;;
46266;SDS011;31998;48.798;15.066;2023-03-04T06:23:01;17.37;;;10.07;;
46266;SDS011;31998;48.798;15.066;2023-03-04T06:25:26;20.90;;;9.93;;
46266;SDS011;31998;48.798;15.066;2023-03-04T06:27:51;16.70;;;11.07;;
46266;SDS011;31998;48.798;15.066;2023-03-04T06:30:17;20.00;;;10.03;;
46266;SDS011;31998;48.798;15.066;2023-03-04T06:32:42;13.50;;;8.90;;
46266;SDS011;31998;48.798;15.066;2023-03-04T06:35:12;16.53;;;9.27;;
46266;SDS011;31998;48.798;15.066;2023-03-04T06:37:37;15.97;;;10.93;;
46266;SDS011;31998;48.798;15.066;2023-03-04T06:40:03;23.10;;;10.10;;
46266;SDS011;31998;48.798;15.066;2023-03-04T06:42:29;15.80;;;10.33;;
46266;SDS011;31998;48.798;15.066;2023-03-04T06:44:54;20.00;;;12.43;;
46266;SDS011;31998;48.798;15.066;2023-03-04T06:47:20;25.53;;;12.10;;
46266;SDS011;31998;48.798;15.066;2023-03-04T06:49:45;24.33;;;13.53;;
46266;SDS011;31998;48.798;15.066;2023-03-04T06:52:11;25.00;;;14.40;;
46266;SDS011;31998;48.798;15.066;2023-03-04T06:54:37;16.83;;;11.67;;
46266;SDS011;31998;48.798;15.066;2023-03-04T06:57:05;25.90;;;14.07;;
46266;SDS011;31998;48.798;15.066;2023-03-04T06:59:31;47.93;;;24.73;;
46266;SDS011;31998;48.798;15.066;2023-03-04T07:01:56;32.50;;;16.40;;
46266;SDS011;31998;48.798;15.066;2023-03-04T07:04:22;32.93;;;18.50;;
46266;SDS011;31998;48.798;15.066;2023-03-04T07:06:47;44.20;;;23.20;;
46266;SDS011;31998;48.798;15.066;2023-03-04T07:09:13;34.47;;;18.90;;
46266;SDS011;31998;48.798;15.066;2023-03-04T07:11:38;40.30;;;21.20;;
46266;SDS011;31998;48.798;15.066;2023-03-04T07:14:03;38.20;;;22.30;;
46266;SDS011;31998;48.798;15.066;2023-03-04T07:16:29;50.67;;;24.53;;
46266;SDS011;31998;48.798;15.066;2023-03-04T07:18:54;47.80;;;23.77;;
46266;SDS011;31998;48.798;15.066;2023-03-04T07:21:20;52.40;;;24.80;;
46266;SDS011;31998;48.798;15.066;2023-03-04T07:23:45;50.20;;;26.43;;
46266;SDS011;31998;48.798;15.066;2023-03-04T07:26:11;48.43;;;24.40;;
46266;SDS011;31998;48.798;15.066;2023-03-04T07:28:36;42.00;;;23.67;;
46266;SDS011;31998;48.798;15.066;2023-03-04T07:31:34;39.93;;;20.50;;
46266;SDS011;31998;48.798;15.066;2023-03-04T07:33:57;34.47;;;20.30;;
46266;SDS011;31998;48.798;15.066;2023-03-04T07:36:23;41.07;;;20.20;;
46266;SDS011;31998;48.798;15.066;2023-03-04T07:38:49;32.47;;;16.80;;
46266;SDS011;31998;48.798;15.066;2023-03-04T07:41:15;43.63;;;23.03;;
46266;SDS011;31998;48.798;15.066;2023-03-04T07:43:40;43.00;;;22.03;;
46266;SDS011;31998;48.798;15.066;2023-03-04T07:46:06;36.70;;;20.90;;
46266;SDS011;31998;48.798;15.066;2023-03-04T07:48:31;38.83;;;22.13;;
46266;SDS011;31998;48.798;15.066;2023-03-04T07:51:06;31.33;;;20.77;;
46266;SDS011;31998;48.798;15.066;2023-03-04T07:53:32;39.07;;;21.57;;
46266;SDS011;31998;48.798;15.066;2023-03-04T07:55:57;37.13;;;19.30;;
46266;SDS011;31998;48.798;15.066;2023-03-04T07:58:23;38.07;;;23.10;;
46266;SDS011;31998;48.798;15.066;2023-03-04T08:00:48;38.33;;;19.67;;
46266;SDS011;31998;48.798;15.066;2023-03-04T08:03:13;33.00;;;19.77;;
46266;SDS011;31998;48.798;15.066;2023-03-04T08:05:40;33.77;;;20.20;;
46266;SDS011;31998;48.798;15.066;2023-03-04T08:08:05;37.83;;;21.90;;
46266;SDS011;31998;48.798;15.066;2023-03-04T08:10:30;33.57;;;19.33;;
46266;SDS011;31998;48.798;15.066;2023-03-04T08:12:56;28.20;;;18.50;;
46266;SDS011;31998;48.798;15.066;2023-03-04T08:15:21;41.27;;;20.80;;
46266;SDS011;31998;48.798;15.066;2023-03-04T08:17:46;32.80;;;18.70;;
46266;SDS011;31998;48.798;15.066;2023-03-04T08:20:12;29.57;;;18.90;;
46266;SDS011;31998;48.798;15.066;2023-03-04T08:22:37;36.20;;;20.47;;
46266;SDS011;31998;48.798;15.066;2023-03-04T08:25:03;33.53;;;16.97;;
46266;SDS011;31998;48.798;15.066;2023-03-04T08:27:28;30.77;;;17.63;;
46266;SDS011;31998;48.798;15.066;2023-03-04T08:29:54;20.80;;;13.17;;
46266;SDS011;31998;48.798;15.066;2023-03-04T08:32:20;18.03;;;12.67;;
46266;SDS011;31998;48.798;15.066;2023-03-04T08:34:46;21.90;;;13.77;;
46266;SDS011;31998;48.798;15.066;2023-03-04T08:37:11;26.83;;;16.90;;
46266;SDS011;31998;48.798;15.066;2023-03-04T08:39:36;20.60;;;12.60;;
46266;SDS011;31998;48.798;15.066;2023-03-04T08:42:02;20.07;;;13.73;;
46266;SDS011;31998;48.798;15.066;2023-03-04T08:44:29;19.27;;;11.60;;
46266;SDS011;31998;48.798;15.066;2023-03-04T08:46:54;19.47;;;13.03;;
46266;SDS011;31998;48.798;15.066;2023-03-04T08:49:19;25.43;;;14.37;;
46266;SDS011;31998;48.798;15.066;2023-03-04T08:51:45;21.27;;;13.00;;
46266;SDS011;31998;48.798;15.066;2023-03-04T08:54:10;21.40;;;11.77;;
46266;SDS011;31998;48.798;15.066;2023-03-04T08:56:35;19.80;;;13.40;;
46266;SDS011;31998;48.798;15.066;2023-03-04T08:59:01;19.30;;;13.47;;
46266;SDS011;31998;48.798;15.066;2023-03-04T09:01:26;19.30;;;11.83;;
46266;SDS011;31998;48.798;15.066;2023-03-04T09:03:51;22.03;;;13.17;;
46266;SDS011;31998;48.798;15.066;2023-03-04T09:06:17;21.73;;;13.03;;
46266;SDS011;31998;48.798;15.066;2023-03-04T09:08:43;21.40;;;12.93;;
46266;SDS011;31998;48.798;15.066;2023-03-04T09:11:08;16.83;;;11.10;;
46266;SDS011;31998;48.798;15.066;2023-03-04T09:13:33;20.50;;;11.40;;
46266;SDS011;31998;48.798;15.066;2023-03-04T09:15:59;19.90;;;12.93;;
46266;SDS011;31998;48.798;15.066;2023-03-04T09:18:24;17.43;;;10.90;;
46266;SDS011;31998;48.798;15.066;2023-03-04T09:20:50;20.37;;;13.43;;
46266;SDS011;31998;48.798;15.066;2023-03-04T09:23:17;21.07;;;13.30;;
46266;SDS011;31998;48.798;15.066;2023-03-04T09:25:42;29.27;;;13.47;;
46266;SDS011;31998;48.798;15.066;2023-03-04T09:28:09;20.00;;;13.30;;
46266;SDS011;31998;48.798;15.066;2023-03-04T09:30:34;21.37;;;13.80;;
46266;SDS011;31998;48.798;15.066;2023-03-04T09:33:00;21.47;;;12.27;;
46266;SDS011;31998;48.798;15.066;2023-03-04T09:35:25;14.13;;;10.03;;
46266;SDS011;31998;48.798;15.066;2023-03-04T09:37:51;18.90;;;11.03;;
46266;SDS011;31998;48.798;15.066;2023-03-04T09:40:19;17.70;;;11.83;;
46266;SDS011;31998;48.798;15.066;2023-03-04T09:42:46;14.23;;;10.33;;
46266;SDS011;31998;48.798;15.066;2023-03-04T09:45:14;15.10;;;10.93;;
46266;SDS011;31998;48.798;15.066;2023-03-04T09:47:40;15.90;;;10.97;;
46266;SDS011;31998;48.798;15.066;2023-03-04T09:50:07;18.37;;;11.20;;
46266;SDS011;31998;48.798;15.066;2023-03-04T10:00:25;16.43;;;10.63;;
46266;SDS011;31998;48.798;15.066;2023-03-04T10:08:24;17.40;;;11.70;;
46266;SDS011;31998;48.798;15.066;2023-03-04T10:10:51;16.53;;;11.30;;
46266;SDS011;31998;48.798;15.066;2023-03-04T10:13:20;14.73;;;10.77;;
46266;SDS011;31998;48.798;15.066;2023-03-04T10:15:47;18.33;;;11.40;;
46266;SDS011;31998;48.798;15.066;2023-03-04T10:18:23;20.80;;;11.30;;
46266;SDS011;31998;48.798;15.066;2023-03-04T10:20:55;14.33;;;10.47;;
46266;SDS011;31998;48.798;15.066;2023-03-04T10:23:23;18.93;;;11.10;;
46266;SDS011;31998;48.798;15.066;2023-03-04T10:25:50;14.37;;;10.80;;
46266;SDS011;31998;48.798;15.066;2023-03-04T10:28:19;16.07;;;10.17;;
46266;SDS011;31998;48.798;15.066;2023-03-04T10:30:51;17.57;;;12.20;;
46266;SDS011;31998;48.798;15.066;2023-03-04T10:33:21;18.70;;;12.50;;
46266;SDS011;31998;48.798;15.066;2023-03-04T10:35:49;20.00;;;11.63;;
46266;SDS011;31998;48.798;15.066;2023-03-04T10:38:19;16.10;;;11.30;;
46266;SDS011;31998;48.798;15.066;2023-03-04T10:40:45;19.93;;;12.30;;
46266;SDS011;31998;48.798;15.066;2023-03-04T10:43:17;20.50;;;11.73;;
46266;SDS011;31998;48.798;15.066;2023-03-04T10:45:43;19.40;;;11.70;;
46266;SDS011;31998;48.798;15.066;2023-03-04T10:48:20;18.47;;;11.90;;
46266;SDS011;31998;48.798;15.066;2023-03-04T10:50:46;13.83;;;10.37;;
46266;SDS011;31998;48.798;15.066;2023-03-04T10:55:49;16.67;;;11.60;;
46266;SDS011;31998;48.798;15.066;2023-03-04T10:58:14;22.03;;;13.27;;
46266;SDS011;31998;48.798;15.066;2023-03-04T11:00:41;21.87;;;12.30;;
46266;SDS011;31998;48.798;15.066;2023-03-04T11:03:24;24.23;;;11.00;;
46266;SDS011;31998;48.798;15.066;2023-03-04T11:05:50;20.40;;;12.87;;
46266;SDS011;31998;48.798;15.066;2023-03-04T11:08:18;17.40;;;10.80;;
46266;SDS011;31998;48.798;15.066;2023-03-04T11:10:44;13.30;;;10.47;;
46266;SDS011;31998;48.798;15.066;2023-03-04T11:16:22;22.00;;;11.90;;
46266;SDS011;31998;48.798;15.066;2023-03-04T11:18:22;16.97;;;10.97;;
46266;SDS011;31998;48.798;15.066;2023-03-04T11:20:50;18.70;;;11.60;;
46266;SDS011;31998;48.798;15.066;2023-03-04T11:25:53;18.17;;;11.60;;
46266;SDS011;31998;48.798;15.066;2023-03-04T11:28:25;18.10;;;11.93;;
46266;SDS011;31998;48.798;15.066;2023-03-04T11:30:53;18.30;;;11.70;;
46266;SDS011;31998;48.798;15.066;2023-03-04T11:33:25;19.43;;;12.00;;
46266;SDS011;31998;48.798;15.066;2023-03-04T11:38:40;17.17;;;11.17;;
46266;SDS011;31998;48.798;15.066;2023-03-04T11:41:41;18.20;;;10.93;;
46266;SDS011;31998;48.798;15.066;2023-03-04T11:44:00;18.03;;;11.93;;
46266;SDS011;31998;48.798;15.066;2023-03-04T11:54:33;23.50;;;13.13;;
46266;SDS011;31998;48.798;15.066;2023-03-04T11:57:05;21.40;;;12.77;;
46266;SDS011;31998;48.798;15.066;2023-03-04T12:06:59;18.13;;;12.57;;
46266;SDS011;31998;48.798;15.066;2023-03-04T12:09:31;16.00;;;11.50;;
46266;SDS011;31998;48.798;15.066;2023-03-04T12:17:05;19.63;;;13.13;;
46266;SDS011;31998;48.798;15.066;2023-03-04T12:22:11;18.20;;;12.30;;
46266;SDS011;31998;48.798;15.066;2023-03-04T12:27:23;20.77;;;12.87;;
46266;SDS011;31998;48.798;15.066;2023-03-04T12:39:50;14.23;;;10.67;;
46266;SDS011;31998;48.798;15.066;2023-03-04T12:44:52;16.23;;;10.47;;
46266;SDS011;31998;48.798;15.066;2023-03-04T12:55:00;13.03;;;9.00;;
46266;SDS011;31998;48.798;15.066;2023-03-04T12:57:26;12.47;;;9.70;;
46266;SDS011;31998;48.798;15.066;2023-03-04T13:00:05;11.87;;;8.70;;
46266;SDS011;31998;48.798;15.066;2023-03-04T13:02:34;12.03;;;8.50;;
46266;SDS011;31998;48.798;15.066;2023-03-04T13:09:56;11.37;;;9.80;;
46266;SDS011;31998;48.798;15.066;2023-03-04T13:12:24;12.97;;;8.67;;
46266;SDS011;31998;48.798;15.066;2023-03-04T13:22:56;8.90;;;7.47;;
46266;SDS011;31998;48.798;15.066;2023-03-04T13:38:31;10.23;;;8.00;;
46266;SDS011;31998;48.798;15.066;2023-03-04T14:01:32;16.23;;;7.87;;
46266;SDS011;31998;48.798;15.066;2023-03-04T14:03:58;12.10;;;8.80;;
46266;SDS011;31998;48.798;15.066;2023-03-04T14:06:28;13.93;;;9.17;;
46266;SDS011;31998;48.798;15.066;2023-03-04T14:08:56;10.40;;;7.80;;
46266;SDS011;31998;48.798;15.066;2023-03-04T14:11:26;12.90;;;8.90;;
46266;SDS011;31998;48.798;15.066;2023-03-04T14:13:52;9.53;;;7.53;;
46266;SDS011;31998;48.798;15.066;2023-03-04T14:16:18;12.10;;;9.50;;
46266;SDS011;31998;48.798;15.066;2023-03-04T14:18:44;13.70;;;9.50;;
46266;SDS011;31998;48.798;15.066;2023-03-04T14:21:13;12.30;;;9.40;;
46266;SDS011;31998;48.798;15.066;2023-03-04T14:23:39;10.30;;;9.20;;
46266;SDS011;31998;48.798;15.066;2023-03-04T14:26:12;12.03;;;9.37;;
46266;SDS011;31998;48.798;15.066;2023-03-04T14:28:56;11.70;;;9.17;;
46266;SDS011;31998;48.798;15.066;2023-03-04T14:31:23;12.43;;;8.33;;
46266;SDS011;31998;48.798;15.066;2023-03-04T14:33:53;14.50;;;10.07;;
46266;SDS011;31998;48.798;15.066;2023-03-04T14:36:26;13.03;;;9.47;;
46266;SDS011;31998;48.798;15.066;2023-03-04T14:38:53;12.50;;;9.97;;
46266;SDS011;31998;48.798;15.066;2023-03-04T14:41:21;15.03;;;9.97;;
46266;SDS011;31998;48.798;15.066;2023-03-04T14:43:54;17.13;;;11.70;;
46266;SDS011;31998;48.798;15.066;2023-03-04T14:46:21;12.30;;;10.10;;
46266;SDS011;31998;48.798;15.066;2023-03-04T14:48:50;13.53;;;10.07;;
46266;SDS011;31998;48.798;15.066;2023-03-04T14:56:56;15.80;;;11.70;;
46266;SDS011;31998;48.798;15.066;2023-03-04T14:59:32;16.17;;;9.70;;
46266;SDS011;31998;48.798;15.066;2023-03-04T15:02:12;12.80;;;9.57;;
46266;SDS011;31998;48.798;15.066;2023-03-04T15:04:40;11.90;;;9.70;;
46266;SDS011;31998;48.798;15.066;2023-03-04T15:07:11;23.53;;;11.53;;
46266;SDS011;31998;48.798;15.066;2023-03-04T15:09:39;20.07;;;10.93;;
46266;SDS011;31998;48.798;15.066;2023-03-04T15:12:06;13.97;;;10.03;;
46266;SDS011;31998;48.798;15.066;2023-03-04T15:14:43;15.70;;;11.07;;
46266;SDS011;31998;48.798;15.066;2023-03-04T15:22:26;18.33;;;11.80;;
46266;SDS011;31998;48.798;15.066;2023-03-04T15:24:51;13.10;;;10.63;;
46266;SDS011;31998;48.798;15.066;2023-03-04T15:27:17;15.67;;;10.97;;
46266;SDS011;31998;48.798;15.066;2023-03-04T15:29:44;15.47;;;10.30;;
46266;SDS011;31998;48.798;15.066;2023-03-04T15:32:09;17.53;;;11.23;;
46266;SDS011;31998;48.798;15.066;2023-03-04T15:34:35;16.53;;;10.47;;
46266;SDS011;31998;48.798;15.066;2023-03-04T15:37:00;23.80;;;10.93;;
46266;SDS011;31998;48.798;15.066;2023-03-04T15:39:26;18.93;;;10.70;;
46266;SDS011;31998;48.798;15.066;2023-03-04T15:41:52;20.50;;;9.57;;
46266;SDS011;31998;48.798;15.066;2023-03-04T15:44:17;15.30;;;9.83;;
46266;SDS011;31998;48.798;15.066;2023-03-04T15:46:42;13.60;;;9.27;;
46266;SDS011;31998;48.798;15.066;2023-03-04T15:49:08;15.33;;;10.20;;
46266;SDS011;31998;48.798;15.066;2023-03-04T15:51:34;16.67;;;10.17;;
46266;SDS011;31998;48.798;15.066;2023-03-04T15:53:59;14.50;;;10.63;;
46266;SDS011;31998;48.798;15.066;2023-03-04T15:56:29;19.83;;;11.53;;
46266;SDS011;31998;48.798;15.066;2023-03-04T15:58:59;19.73;;;11.27;;
46266;SDS011;31998;48.798;15.066;2023-03-04T16:01:25;17.57;;;11.17;;
46266;SDS011;31998;48.798;15.066;2023-03-04T16:03:50;19.90;;;13.20;;
46266;SDS011;31998;48.798;15.066;2023-03-04T16:06:16;15.47;;;10.67;;
46266;SDS011;31998;48.798;15.066;2023-03-04T16:08:43;18.80;;;10.73;;
46266;SDS011;31998;48.798;15.066;2023-03-04T16:11:10;21.13;;;10.83;;
46266;SDS011;31998;48.798;15.066;2023-03-04T16:13:38;19.40;;;12.03;;
46266;SDS011;31998;48.798;15.066;2023-03-04T16:16:03;21.10;;;12.00;;
46266;SDS011;31998;48.798;15.066;2023-03-04T16:18:29;26.17;;;11.67;;